createdAt,value
2022-09-18T07:14:28.418Z,56.734001
2022-09-18T07:15:37.115Z,56.842999
2022-09-18T07:16:46.740Z,57.129002
2022-09-18T07:17:54.434Z,57.313
2022-09-18T07:19:02.100Z,57.41
2022-09-18T07:20:11.737Z,57.479
2022-09-18T07:21:20.464Z,57.606998
2022-09-18T07:22:29.074Z,57.638
2022-09-18T07:23:37.690Z,57.618
2022-09-18T07:24:46.357Z,57.595001
2022-09-18T07:25:56.052Z,57.549999
2022-09-18T07:27:04.757Z,57.504002
2022-09-18T07:28:12.406Z,57.472
2022-09-18T07:29:22.099Z,57.452
2022-09-18T07:30:31.903Z,57.381001
2022-09-18T07:31:41.519Z,57.368999
2022-09-18T07:32:50.060Z,57.330002
2022-09-18T07:33:59.782Z,57.272999
2022-09-18T07:35:09.380Z,57.261002
2022-09-18T07:36:18.114Z,57.244999
2022-09-18T07:37:25.747Z,57.229
2022-09-18T07:38:35.472Z,57.231998
2022-09-18T07:39:44.065Z,57.219002
2022-09-18T07:40:52.704Z,57.223999
2022-09-18T07:42:03.621Z,57.213001
2022-09-18T07:43:10.986Z,57.200001
2022-09-18T07:44:20.633Z,57.199001
2022-09-18T07:45:28.291Z,57.18
2022-09-18T07:46:38.075Z,57.174
2022-09-18T07:47:47.816Z,57.153
2022-09-18T07:48:56.498Z,57.153999
2022-09-18T07:50:05.170Z,57.141998
2022-09-18T07:51:12.821Z,57.112999
2022-09-18T07:52:21.631Z,57.056999
2022-09-18T07:53:31.168Z,57.063999
2022-09-18T07:54:38.788Z,57.069
2022-09-18T07:55:47.484Z,57.049999
2022-09-18T07:56:57.166Z,57.027
2022-09-18T07:58:08.376Z,57.026001
2022-09-18T07:59:17.227Z,57.011002
2022-09-18T08:00:26.861Z,57.005001
2022-09-18T08:01:35.574Z,57.008999
2022-09-18T08:02:45.760Z,57.018002
2022-09-18T08:03:55.197Z,56.993
2022-09-18T08:05:03.839Z,56.985001
2022-09-18T08:06:13.509Z,56.964001
2022-09-18T08:07:22.145Z,56.957001
2022-09-18T08:08:31.766Z,56.967999
2022-09-18T08:09:40.425Z,56.943001
2022-09-18T08:10:50.014Z,56.914001
2022-09-18T08:11:59.669Z,56.919998
2022-09-18T08:13:07.292Z,56.900002
2022-09-18T08:14:28.703Z,56.890999
2022-09-18T08:15:40.603Z,56.889999
2022-09-18T08:16:50.244Z,56.881001
2022-09-18T08:17:57.954Z,56.844002
2022-09-18T08:19:07.467Z,56.832001
2022-09-18T08:20:17.086Z,56.831001
2022-09-18T08:21:25.696Z,56.837002
2022-09-18T08:22:34.284Z,56.837002
2022-09-18T08:23:42.927Z,56.818001
2022-09-18T08:24:51.523Z,56.807999
2022-09-18T08:26:01.230Z,56.789001
2022-09-18T08:27:08.947Z,56.789001
2022-09-18T08:28:16.715Z,56.778
2022-09-18T08:29:26.380Z,56.771
2022-09-18T08:30:36.014Z,56.778
2022-09-18T08:31:45.731Z,56.794998
2022-09-18T08:32:54.517Z,56.789001
2022-09-18T08:34:04.213Z,56.780998
2022-09-18T08:35:14.787Z,56.772999
2022-09-18T08:36:23.450Z,56.772999
2022-09-18T08:37:31.102Z,56.772999
2022-09-18T08:38:40.763Z,56.759998
2022-09-18T08:39:49.378Z,56.736
2022-09-18T08:40:57.965Z,56.721001
2022-09-18T08:42:06.553Z,56.713001
2022-09-18T08:43:15.179Z,56.707001
2022-09-18T08:44:24.836Z,56.713001
2022-09-18T08:45:33.560Z,56.724998
2022-09-18T08:46:42.297Z,56.724998
2022-09-18T08:47:51.933Z,56.712002
2022-09-18T08:49:00.585Z,56.695999
2022-09-18T08:50:10.361Z,56.702
2022-09-18T08:51:19.952Z,56.672001
2022-09-18T08:52:28.607Z,56.666
2022-09-18T08:53:37.243Z,56.639999
2022-09-18T08:54:46.895Z,56.609001
2022-09-18T08:55:55.513Z,56.598999
2022-09-18T08:57:04.159Z,56.592999
2022-09-18T08:58:13.759Z,56.568001
2022-09-18T08:59:22.400Z,56.581001
2022-09-18T09:00:32.289Z,56.566002
2022-09-18T09:01:39.925Z,56.530998
2022-09-18T09:02:49.573Z,56.519001
2022-09-18T09:03:59.254Z,56.511002
2022-09-18T09:05:08.025Z,56.511002
2022-09-18T09:06:17.776Z,56.505001
2022-09-18T09:07:27.272Z,56.486
2022-09-18T09:08:36.946Z,56.473999
2022-09-18T09:09:46.592Z,56.43
2022-09-18T09:10:54.208Z,56.436001
2022-09-18T09:12:02.936Z,56.455002
2022-09-18T09:13:12.726Z,56.453999
2022-09-18T09:14:34.420Z,56.432999
2022-09-18T09:15:32.048Z,56.419998
2022-09-18T09:16:40.718Z,56.418999
2022-09-18T09:17:50.249Z,56.400002
2022-09-18T09:19:00.016Z,56.389999
2022-09-18T09:20:07.727Z,56.389999
2022-09-18T09:21:16.328Z,56.388
2022-09-18T09:22:26.128Z,56.395
2022-09-18T09:23:35.609Z,56.382
2022-09-18T09:24:44.319Z,56.356998
2022-09-18T09:25:52.895Z,56.347
2022-09-18T09:27:01.536Z,56.328999
2022-09-18T09:28:14.469Z,56.341
2022-09-18T09:29:21.829Z,56.321999
2022-09-18T09:30:29.448Z,56.297001
2022-09-18T09:31:39.085Z,56.298
2022-09-18T09:32:47.697Z,56.292
2022-09-18T09:33:56.418Z,56.272999
2022-09-18T09:35:05.038Z,56.279999
2022-09-18T09:36:13.647Z,56.242001
2022-09-18T09:37:24.135Z,56.266998
2022-09-18T09:38:32.897Z,56.242001
2022-09-18T09:39:40.685Z,56.244999
2022-09-18T09:40:50.392Z,56.244999
2022-09-18T09:41:59.974Z,56.231998
2022-09-18T09:43:08.625Z,56.202999
2022-09-18T09:44:17.342Z,56.172001
2022-09-18T09:45:25.914Z,56.185001
2022-09-18T09:46:35.581Z,56.166
2022-09-18T09:47:45.178Z,56.157001
2022-09-18T09:48:53.803Z,56.137001
2022-09-18T09:50:03.414Z,56.144001
2022-09-18T09:51:12.038Z,56.144001
2022-09-18T09:52:21.678Z,56.155998
2022-09-18T09:53:30.309Z,56.150002
2022-09-18T09:54:40.114Z,56.147999
2022-09-18T09:55:49.621Z,56.141998
2022-09-18T09:56:57.267Z,56.136002
2022-09-18T09:58:04.872Z,56.162998
2022-09-18T09:59:14.508Z,56.209
2022-09-18T10:00:23.138Z,56.209
2022-09-18T10:01:31.727Z,56.183998
2022-09-18T10:02:40.312Z,56.193001
2022-09-18T10:03:49.977Z,56.155998
2022-09-18T10:04:59.527Z,56.161999
2022-09-18T10:06:07.113Z,56.143002
2022-09-18T10:07:15.680Z,56.132999
2022-09-18T10:08:24.276Z,56.147999
2022-09-18T10:09:32.887Z,56.138
2022-09-18T10:10:42.601Z,56.125
2022-09-18T10:11:55.232Z,56.136002
2022-09-18T10:13:01.638Z,56.124001
2022-09-18T10:14:11.249Z,56.143002
2022-09-18T10:15:18.835Z,56.117001
2022-09-18T10:16:26.501Z,56.132999
2022-09-18T10:17:36.125Z,56.125999
2022-09-18T10:18:44.738Z,56.151001
2022-09-18T10:19:54.355Z,56.178001
2022-09-18T10:21:02.987Z,56.172001
2022-09-18T10:22:12.594Z,56.178001
2022-09-18T10:23:23.943Z,56.166
2022-09-18T10:24:32.784Z,56.157001
2022-09-18T10:25:40.398Z,56.145
2022-09-18T10:26:50.106Z,56.151001
2022-09-18T10:27:59.567Z,56.130001
2022-09-18T10:29:08.193Z,56.136002
2022-09-18T10:30:16.774Z,56.146
2022-09-18T10:31:26.400Z,56.139999
2022-09-18T10:32:35.999Z,56.146
2022-09-18T10:33:44.656Z,56.152
2022-09-18T10:34:52.282Z,56.152
2022-09-18T10:36:01.868Z,56.141998
2022-09-18T10:37:10.473Z,56.147999
2022-09-18T10:38:19.139Z,56.154999
2022-09-18T10:39:31.331Z,56.136002
2022-09-18T10:40:37.414Z,56.154999
2022-09-18T10:41:46.923Z,56.172001
2022-09-18T10:42:55.635Z,56.202999
2022-09-18T10:44:03.097Z,56.223999
2022-09-18T10:45:12.682Z,56.237
2022-09-18T10:46:21.331Z,56.261002
2022-09-18T10:47:29.871Z,56.238998
2022-09-18T10:48:38.583Z,56.250999
2022-09-18T10:49:47.243Z,56.250999
2022-09-18T10:50:54.855Z,56.271999
2022-09-18T10:52:04.533Z,56.307999
2022-09-18T10:53:13.103Z,56.327
2022-09-18T10:54:21.860Z,56.327
2022-09-18T10:55:30.616Z,56.34
2022-09-18T10:56:40.365Z,56.34
2022-09-18T10:57:49.968Z,56.352001
2022-09-18T10:58:58.691Z,56.358002
2022-09-18T11:00:07.598Z,56.348
2022-09-18T11:01:17.917Z,56.348
2022-09-18T11:02:27.774Z,56.341999
2022-09-18T11:03:36.237Z,56.330002
2022-09-18T11:04:45.932Z,56.311001
2022-09-18T11:05:54.584Z,56.311001
2022-09-18T11:07:04.353Z,56.291
2022-09-18T11:08:12.972Z,56.257
2022-09-18T11:09:21.018Z,56.238998
2022-09-18T11:10:30.973Z,56.214001
2022-09-18T11:11:39.837Z,56.201
2022-09-18T11:12:53.550Z,56.153999
2022-09-18T11:14:00.747Z,56.140999
2022-09-18T11:15:10.566Z,56.104
2022-09-18T11:16:20.535Z,56.054001
2022-09-18T11:17:30.943Z,56.004002
2022-09-18T11:18:38.948Z,55.979
2022-09-18T11:19:48.588Z,55.918999
2022-09-18T11:20:57.193Z,55.880001
2022-09-18T11:22:06.043Z,55.861
2022-09-18T11:23:15.460Z,55.755001
2022-09-18T11:24:25.218Z,55.747002
2022-09-18T11:25:34.143Z,55.650002
2022-09-18T11:26:41.849Z,55.605999
2022-09-18T11:27:50.651Z,55.575001
2022-09-18T11:29:00.333Z,55.562
2022-09-18T11:30:10.204Z,55.509998
2022-09-18T11:31:20.203Z,55.473
2022-09-18T11:32:30.257Z,55.442001
2022-09-18T11:33:39.487Z,55.43
2022-09-18T11:34:49.730Z,55.351002
2022-09-18T11:35:59.364Z,55.286999
2022-09-18T11:37:06.961Z,55.243
2022-09-18T11:38:16.568Z,55.192001
2022-09-18T11:39:25.332Z,55.160999
2022-09-18T11:40:34.063Z,55.117001
2022-09-18T11:41:42.604Z,55.035
2022-09-18T11:42:51.228Z,54.992001
2022-09-18T11:44:00.925Z,54.909
2022-09-18T11:45:10.877Z,54.827999
2022-09-18T11:46:19.549Z,54.783001
2022-09-18T11:47:29.232Z,54.738998
2022-09-18T11:48:38.779Z,54.757999
2022-09-18T11:49:47.360Z,54.708
2022-09-18T11:50:57.104Z,54.667
2022-09-18T11:52:05.942Z,54.624001
2022-09-18T11:53:15.804Z,54.636002
2022-09-18T11:54:25.468Z,54.636002
2022-09-18T11:55:34.206Z,54.618
2022-09-18T11:56:44.096Z,54.648998
2022-09-18T11:57:51.711Z,54.713001
2022-09-18T11:59:02.560Z,54.775002
2022-09-18T12:00:12.478Z,54.728001
2022-09-18T12:01:22.435Z,54.696999
2022-09-18T12:02:32.450Z,54.685001
2022-09-18T12:03:40.819Z,54.653999
2022-09-18T12:04:49.453Z,54.655998
2022-09-18T12:05:59.035Z,54.757
2022-09-18T12:07:08.619Z,54.876999
2022-09-18T12:08:18.939Z,54.853001
2022-09-18T12:09:28.450Z,54.821999
